sensor_id;sensor_type;location;lat;lon;timestamp;temperature;humidity
69464;DHT22;56665;41.106;16.688;2023-08-06T00:01:09;22.96;65.51
69464;DHT22;56665;41.106;16.688;2023-08-06T00:04:13;22.89;65.46
69464;DHT22;56665;41.106;16.688;2023-08-06T00:07:17;22.85;65.46
69464;DHT22;56665;41.106;16.688;2023-08-06T00:10:21;22.82;65.72
69464;DHT22;56665;41.106;16.688;2023-08-06T00:13:24;22.81;65.47
69464;DHT22;56665;41.106;16.688;2023-08-06T00:16:28;22.76;65.26
69464;DHT22;56665;41.106;16.688;2023-08-06T00:19:32;22.72;65.22
69464;DHT22;56665;41.106;16.688;2023-08-06T00:22:36;22.72;65.37
69464;DHT22;56665;41.106;16.688;2023-08-06T00:25:40;22.68;65.30
69464;DHT22;56665;41.106;16.688;2023-08-06T00:28:44;22.68;65.36
69464;DHT22;56665;41.106;16.688;2023-08-06T00:31:47;22.64;65.48
69464;DHT22;56665;41.106;16.688;2023-08-06T00:34:51;22.60;64.99
69464;DHT22;56665;41.106;16.688;2023-08-06T00:37:55;22.50;65.10
69464;DHT22;56665;41.106;16.688;2023-08-06T00:40:58;22.50;65.64
69464;DHT22;56665;41.106;16.688;2023-08-06T00:44:03;22.44;65.47
69464;DHT22;56665;41.106;16.688;2023-08-06T00:47:07;22.50;65.23
69464;DHT22;56665;41.106;16.688;2023-08-06T00:50:12;22.54;64.98
69464;DHT22;56665;41.106;16.688;2023-08-06T00:53:15;22.55;64.95
69464;DHT22;56665;41.106;16.688;2023-08-06T00:56:19;22.54;64.78
69464;DHT22;56665;41.106;16.688;2023-08-06T00:59:23;22.58;64.68
69464;DHT22;56665;41.106;16.688;2023-08-06T01:02:27;22.55;64.84
69464;DHT22;56665;41.106;16.688;2023-08-06T01:05:30;22.57;64.62
69464;DHT22;56665;41.106;16.688;2023-08-06T01:08:58;22.60;64.53
69464;DHT22;56665;41.106;16.688;2023-08-06T01:12:10;22.55;64.55
69464;DHT22;56665;41.106;16.688;2023-08-06T01:15:21;22.58;64.45
69464;DHT22;56665;41.106;16.688;2023-08-06T01:18:26;22.60;64.23
69464;DHT22;56665;41.106;16.688;2023-08-06T01:21:29;22.58;64.33
69464;DHT22;56665;41.106;16.688;2023-08-06T01:24:33;22.63;64.33
69464;DHT22;56665;41.106;16.688;2023-08-06T01:27:48;22.63;64.06
69464;DHT22;56665;41.106;16.688;2023-08-06T01:30:55;22.58;64.14
69464;DHT22;56665;41.106;16.688;2023-08-06T01:34:01;22.58;64.45
69464;DHT22;56665;41.106;16.688;2023-08-06T01:37:06;22.57;64.30
69464;DHT22;56665;41.106;16.688;2023-08-06T01:40:12;22.65;64.32
69464;DHT22;56665;41.106;16.688;2023-08-06T01:43:16;22.64;63.90
69464;DHT22;56665;41.106;16.688;2023-08-06T01:46:20;22.55;64.18
69464;DHT22;56665;41.106;16.688;2023-08-06T01:49:23;22.51;64.44
69464;DHT22;56665;41.106;16.688;2023-08-06T01:52:28;22.51;64.29
69464;DHT22;56665;41.106;16.688;2023-08-06T01:55:32;22.55;64.21
69464;DHT22;56665;41.106;16.688;2023-08-06T01:58:35;22.53;63.92
69464;DHT22;56665;41.106;16.688;2023-08-06T02:01:39;22.48;64.15
69464;DHT22;56665;41.106;16.688;2023-08-06T02:04:43;22.50;64.08
69464;DHT22;56665;41.106;16.688;2023-08-06T02:07:46;22.51;63.87
69464;DHT22;56665;41.106;16.688;2023-08-06T02:10:50;22.51;64.12
69464;DHT22;56665;41.106;16.688;2023-08-06T02:13:54;22.50;64.20
69464;DHT22;56665;41.106;16.688;2023-08-06T02:16:58;22.51;64.36
69464;DHT22;56665;41.106;16.688;2023-08-06T02:20:03;22.48;64.09
69464;DHT22;56665;41.106;16.688;2023-08-06T02:23:08;22.48;63.71
69464;DHT22;56665;41.106;16.688;2023-08-06T02:26:12;22.48;63.39
69464;DHT22;56665;41.106;16.688;2023-08-06T02:29:15;22.45;63.46
69464;DHT22;56665;41.106;16.688;2023-08-06T02:32:20;22.45;63.39
69464;DHT22;56665;41.106;16.688;2023-08-06T02:35:24;22.50;63.35
69464;DHT22;56665;41.106;16.688;2023-08-06T02:38:28;22.48;63.14
69464;DHT22;56665;41.106;16.688;2023-08-06T02:41:32;22.48;62.95
69464;DHT22;56665;41.106;16.688;2023-08-06T02:44:36;22.48;62.80
69464;DHT22;56665;41.106;16.688;2023-08-06T02:47:40;22.50;62.78
69464;DHT22;56665;41.106;16.688;2023-08-06T02:50:44;22.54;62.29
69464;DHT22;56665;41.106;16.688;2023-08-06T02:53:48;22.47;62.40
69464;DHT22;56665;41.106;16.688;2023-08-06T02:56:54;22.43;62.93
69464;DHT22;56665;41.106;16.688;2023-08-06T03:00:15;22.43;62.62
69464;DHT22;56665;41.106;16.688;2023-08-06T03:03:19;22.43;62.53
69464;DHT22;56665;41.106;16.688;2023-08-06T03:06:35;22.34;62.19
69464;DHT22;56665;41.106;16.688;2023-08-06T03:09:40;22.28;62.61
69464;DHT22;56665;41.106;16.688;2023-08-06T03:12:44;22.28;62.88
69464;DHT22;56665;41.106;16.688;2023-08-06T03:15:53;22.33;62.43
69464;DHT22;56665;41.106;16.688;2023-08-06T03:18:57;22.33;62.35
69464;DHT22;56665;41.106;16.688;2023-08-06T03:22:01;22.31;62.53
69464;DHT22;56665;41.106;16.688;2023-08-06T03:25:05;22.30;62.17
69464;DHT22;56665;41.106;16.688;2023-08-06T03:28:10;22.28;62.16
69464;DHT22;56665;41.106;16.688;2023-08-06T03:31:14;22.27;62.03
69464;DHT22;56665;41.106;16.688;2023-08-06T03:34:21;22.24;61.86
69464;DHT22;56665;41.106;16.688;2023-08-06T03:37:26;22.21;61.65
69464;DHT22;56665;41.106;16.688;2023-08-06T03:40:30;22.21;61.63
69464;DHT22;56665;41.106;16.688;2023-08-06T03:43:36;22.17;61.42
69464;DHT22;56665;41.106;16.688;2023-08-06T03:46:43;22.14;61.62
69464;DHT22;56665;41.106;16.688;2023-08-06T03:49:47;22.13;61.12
69464;DHT22;56665;41.106;16.688;2023-08-06T03:52:52;22.06;61.40
69464;DHT22;56665;41.106;16.688;2023-08-06T03:55:56;22.02;61.68
69464;DHT22;56665;41.106;16.688;2023-08-06T03:59:03;22.03;61.45
69464;DHT22;56665;41.106;16.688;2023-08-06T04:02:07;22.02;61.59
69464;DHT22;56665;41.106;16.688;2023-08-06T04:05:11;21.99;61.44
69464;DHT22;56665;41.106;16.688;2023-08-06T04:08:15;21.99;61.36
69464;DHT22;56665;41.106;16.688;2023-08-06T04:11:18;21.96;61.67
69464;DHT22;56665;41.106;16.688;2023-08-06T04:14:22;21.99;61.90
69464;DHT22;56665;41.106;16.688;2023-08-06T04:17:27;21.96;61.91
69464;DHT22;56665;41.106;16.688;2023-08-06T04:20:30;21.99;62.12
69464;DHT22;56665;41.106;16.688;2023-08-06T04:23:34;22.00;61.85
69464;DHT22;56665;41.106;16.688;2023-08-06T04:26:41;21.96;62.21
69464;DHT22;56665;41.106;16.688;2023-08-06T04:29:45;22.00;62.27
69464;DHT22;56665;41.106;16.688;2023-08-06T04:32:49;22.00;61.95
69464;DHT22;56665;41.106;16.688;2023-08-06T04:35:54;22.09;61.48
69464;DHT22;56665;41.106;16.688;2023-08-06T04:39:00;22.12;61.23
69464;DHT22;56665;41.106;16.688;2023-08-06T04:42:04;22.14;61.01
69464;DHT22;56665;41.106;16.688;2023-08-06T04:45:09;22.17;61.29
69464;DHT22;56665;41.106;16.688;2023-08-06T04:48:13;22.28;60.47
69464;DHT22;56665;41.106;16.688;2023-08-06T04:51:17;22.38;60.12
69464;DHT22;56665;41.106;16.688;2023-08-06T04:54:21;22.45;59.84
69464;DHT22;56665;41.106;16.688;2023-08-06T04:57:24;22.63;59.71
69464;DHT22;56665;41.106;16.688;2023-08-06T05:00:28;22.78;59.34
69464;DHT22;56665;41.106;16.688;2023-08-06T05:03:31;22.94;58.46
69464;DHT22;56665;41.106;16.688;2023-08-06T05:06:35;23.11;57.55
69464;DHT22;56665;41.106;16.688;2023-08-06T05:09:41;23.25;57.50
69464;DHT22;56665;41.106;16.688;2023-08-06T05:12:45;23.40;57.04
69464;DHT22;56665;41.106;16.688;2023-08-06T05:15:49;23.50;56.83
69464;DHT22;56665;41.106;16.688;2023-08-06T05:18:52;23.61;56.43
69464;DHT22;56665;41.106;16.688;2023-08-06T05:21:56;23.78;56.29
69464;DHT22;56665;41.106;16.688;2023-08-06T05:25:00;23.97;56.19
69464;DHT22;56665;41.106;16.688;2023-08-06T05:28:04;24.14;55.52
69464;DHT22;56665;41.106;16.688;2023-08-06T05:31:08;24.23;55.21
69464;DHT22;56665;41.106;16.688;2023-08-06T05:34:11;24.43;54.76
69464;DHT22;56665;41.106;16.688;2023-08-06T05:37:15;24.60;54.43
69464;DHT22;56665;41.106;16.688;2023-08-06T05:40:19;24.77;53.77
69464;DHT22;56665;41.106;16.688;2023-08-06T05:43:23;25.04;53.47
69464;DHT22;56665;41.106;16.688;2023-08-06T05:46:26;25.25;52.93
69464;DHT22;56665;41.106;16.688;2023-08-06T05:49:30;25.41;52.61
69464;DHT22;56665;41.106;16.688;2023-08-06T05:52:34;25.59;52.26
69464;DHT22;56665;41.106;16.688;2023-08-06T05:55:38;25.85;51.68
69464;DHT22;56665;41.106;16.688;2023-08-06T05:58:42;26.06;51.00
69464;DHT22;56665;41.106;16.688;2023-08-06T06:01:46;26.27;50.89
69464;DHT22;56665;41.106;16.688;2023-08-06T06:04:50;26.50;50.70
69464;DHT22;56665;41.106;16.688;2023-08-06T06:07:54;26.72;50.36
69464;DHT22;56665;41.106;16.688;2023-08-06T06:10:58;26.99;50.64
69464;DHT22;56665;41.106;16.688;2023-08-06T06:14:01;27.22;49.54
69464;DHT22;56665;41.106;16.688;2023-08-06T06:17:05;27.39;48.89
69464;DHT22;56665;41.106;16.688;2023-08-06T06:20:09;27.63;48.42
69464;DHT22;56665;41.106;16.688;2023-08-06T06:23:12;27.88;47.74
69464;DHT22;56665;41.106;16.688;2023-08-06T06:26:16;28.17;47.32
69464;DHT22;56665;41.106;16.688;2023-08-06T06:29:20;28.29;46.81
69464;DHT22;56665;41.106;16.688;2023-08-06T06:32:23;28.56;46.34
69464;DHT22;56665;41.106;16.688;2023-08-06T06:35:27;28.80;45.73
69464;DHT22;56665;41.106;16.688;2023-08-06T06:38:31;29.07;44.85
69464;DHT22;56665;41.106;16.688;2023-08-06T06:41:35;29.23;44.75
69464;DHT22;56665;41.106;16.688;2023-08-06T06:44:47;29.51;44.42
69464;DHT22;56665;41.106;16.688;2023-08-06T06:47:50;29.81;44.63
69464;DHT22;56665;41.106;16.688;2023-08-06T06:50:55;30.07;43.50
69464;DHT22;56665;41.106;16.688;2023-08-06T06:53:59;30.26;43.53
69464;DHT22;56665;41.106;16.688;2023-08-06T06:57:03;30.48;42.66
69464;DHT22;56665;41.106;16.688;2023-08-06T07:00:06;30.69;41.90
69464;DHT22;56665;41.106;16.688;2023-08-06T07:03:10;30.92;41.96
69464;DHT22;56665;41.106;16.688;2023-08-06T07:06:14;31.16;41.94
69464;DHT22;56665;41.106;16.688;2023-08-06T07:09:19;31.49;40.68
69464;DHT22;56665;41.106;16.688;2023-08-06T07:12:22;31.70;40.48
69464;DHT22;56665;41.106;16.688;2023-08-06T07:15:27;32.05;40.45
69464;DHT22;56665;41.106;16.688;2023-08-06T07:18:31;32.34;39.37
69464;DHT22;56665;41.106;16.688;2023-08-06T07:21:34;32.65;38.70
69464;DHT22;56665;41.106;16.688;2023-08-06T07:24:38;32.90;38.42
69464;DHT22;56665;41.106;16.688;2023-08-06T07:27:42;33.13;37.63
69464;DHT22;56665;41.106;16.688;2023-08-06T07:30:46;33.49;37.29
69464;DHT22;56665;41.106;16.688;2023-08-06T07:33:49;33.75;36.36
69464;DHT22;56665;41.106;16.688;2023-08-06T07:36:53;34.11;36.08
69464;DHT22;56665;41.106;16.688;2023-08-06T07:39:56;34.56;35.85
69464;DHT22;56665;41.106;16.688;2023-08-06T07:43:00;35.20;34.23
69464;DHT22;56665;41.106;16.688;2023-08-06T07:46:04;36.02;32.95
69464;DHT22;56665;41.106;16.688;2023-08-06T07:49:09;37.04;32.07
69464;DHT22;56665;41.106;16.688;2023-08-06T07:52:14;38.60;30.25
69464;DHT22;56665;41.106;16.688;2023-08-06T07:55:18;40.41;28.40
69464;DHT22;56665;41.106;16.688;2023-08-06T07:58:23;42.06;26.87
69464;DHT22;56665;41.106;16.688;2023-08-06T08:01:27;43.37;25.25
69464;DHT22;56665;41.106;16.688;2023-08-06T08:04:30;43.86;24.77
69464;DHT22;56665;41.106;16.688;2023-08-06T08:07:34;44.66;24.25
69464;DHT22;56665;41.106;16.688;2023-08-06T08:10:38;45.26;24.08
69464;DHT22;56665;41.106;16.688;2023-08-06T08:13:42;45.41;23.44
69464;DHT22;56665;41.106;16.688;2023-08-06T08:16:45;45.60;23.83
69464;DHT22;56665;41.106;16.688;2023-08-06T08:19:49;45.49;23.70
69464;DHT22;56665;41.106;16.688;2023-08-06T08:22:53;45.60;23.22
69464;DHT22;56665;41.106;16.688;2023-08-06T08:25:57;45.84;23.18
69464;DHT22;56665;41.106;16.688;2023-08-06T08:29:00;45.79;23.41
69464;DHT22;56665;41.106;16.688;2023-08-06T08:32:04;45.41;23.64
69464;DHT22;56665;41.106;16.688;2023-08-06T08:35:08;45.32;23.62
69464;DHT22;56665;41.106;16.688;2023-08-06T08:38:12;45.26;23.62
69464;DHT22;56665;41.106;16.688;2023-08-06T08:41:15;45.21;23.96
69464;DHT22;56665;41.106;16.688;2023-08-06T08:44:19;45.19;23.89
69464;DHT22;56665;41.106;16.688;2023-08-06T08:47:24;45.01;23.69
69464;DHT22;56665;41.106;16.688;2023-08-06T08:50:28;44.91;23.55
69464;DHT22;56665;41.106;16.688;2023-08-06T08:53:35;44.84;23.81
69464;DHT22;56665;41.106;16.688;2023-08-06T08:56:41;44.82;24.01
69464;DHT22;56665;41.106;16.688;2023-08-06T08:59:45;44.34;24.33
69464;DHT22;56665;41.106;16.688;2023-08-06T09:02:49;44.60;24.34
69464;DHT22;56665;41.106;16.688;2023-08-06T09:05:54;44.51;24.30
69464;DHT22;56665;41.106;16.688;2023-08-06T09:09:09;44.38;24.38
69464;DHT22;56665;41.106;16.688;2023-08-06T09:12:16;44.13;24.51
69464;DHT22;56665;41.106;16.688;2023-08-06T09:15:20;43.83;24.82
69464;DHT22;56665;41.106;16.688;2023-08-06T09:18:29;43.15;25.23
69464;DHT22;56665;41.106;16.688;2023-08-06T09:21:36;42.64;25.63
69464;DHT22;56665;41.106;16.688;2023-08-06T09:24:41;42.19;26.02
69464;DHT22;56665;41.106;16.688;2023-08-06T09:27:46;41.67;26.01
69464;DHT22;56665;41.106;16.688;2023-08-06T09:30:52;41.27;26.48
69464;DHT22;56665;41.106;16.688;2023-08-06T09:34:00;41.03;26.97
69464;DHT22;56665;41.106;16.688;2023-08-06T09:37:04;40.73;26.75
69464;DHT22;56665;41.106;16.688;2023-08-06T09:40:28;40.36;26.88
69464;DHT22;56665;41.106;16.688;2023-08-06T09:43:42;39.87;27.43
69464;DHT22;56665;41.106;16.688;2023-08-06T09:46:51;39.86;27.31
69464;DHT22;56665;41.106;16.688;2023-08-06T09:49:56;39.84;27.37
69464;DHT22;56665;41.106;16.688;2023-08-06T09:53:02;39.64;27.70
69464;DHT22;56665;41.106;16.688;2023-08-06T09:56:06;39.84;27.60
69464;DHT22;56665;41.106;16.688;2023-08-06T09:59:11;39.81;27.67
69464;DHT22;56665;41.106;16.688;2023-08-06T10:02:16;39.84;27.62
69464;DHT22;56665;41.106;16.688;2023-08-06T10:05:22;39.86;27.98
69464;DHT22;56665;41.106;16.688;2023-08-06T10:08:26;39.36;28.67
69464;DHT22;56665;41.106;16.688;2023-08-06T10:11:31;39.40;29.02
69464;DHT22;56665;41.106;16.688;2023-08-06T10:14:37;39.02;30.10
69464;DHT22;56665;41.106;16.688;2023-08-06T10:17:43;38.60;30.06
69464;DHT22;56665;41.106;16.688;2023-08-06T10:20:48;38.35;31.31
69464;DHT22;56665;41.106;16.688;2023-08-06T10:23:56;38.27;31.36
69464;DHT22;56665;41.106;16.688;2023-08-06T10:27:00;38.38;31.32
69464;DHT22;56665;41.106;16.688;2023-08-06T10:33:46;38.55;30.13
69464;DHT22;56665;41.106;16.688;2023-08-06T10:36:50;38.67;29.52
69464;DHT22;56665;41.106;16.688;2023-08-06T10:39:57;37.61;29.95
69464;DHT22;56665;41.106;16.688;2023-08-06T10:43:03;37.25;31.35
69464;DHT22;56665;41.106;16.688;2023-08-06T10:46:30;37.26;33.12
69464;DHT22;56665;41.106;16.688;2023-08-06T10:49:34;37.10;34.42
69464;DHT22;56665;41.106;16.688;2023-08-06T10:52:37;37.26;34.53
69464;DHT22;56665;41.106;16.688;2023-08-06T10:55:41;36.44;35.00
69464;DHT22;56665;41.106;16.688;2023-08-06T10:58:46;36.05;36.07
69464;DHT22;56665;41.106;16.688;2023-08-06T11:01:50;35.75;36.37
69464;DHT22;56665;41.106;16.688;2023-08-06T11:04:53;35.66;36.53
69464;DHT22;56665;41.106;16.688;2023-08-06T11:07:57;35.96;36.52
69464;DHT22;56665;41.106;16.688;2023-08-06T11:11:11;36.17;36.00
69464;DHT22;56665;41.106;16.688;2023-08-06T11:14:16;36.27;36.12
69464;DHT22;56665;41.106;16.688;2023-08-06T11:17:21;36.70;35.22
69464;DHT22;56665;41.106;16.688;2023-08-06T11:20:24;36.98;34.76
69464;DHT22;56665;41.106;16.688;2023-08-06T11:23:28;36.62;35.34
69464;DHT22;56665;41.106;16.688;2023-08-06T11:26:32;36.57;35.40
69464;DHT22;56665;41.106;16.688;2023-08-06T11:29:37;36.40;35.66
69464;DHT22;56665;41.106;16.688;2023-08-06T11:32:45;36.64;35.35
69464;DHT22;56665;41.106;16.688;2023-08-06T11:35:50;35.84;36.16
69464;DHT22;56665;41.106;16.688;2023-08-06T11:38:53;34.18;38.43
69464;DHT22;56665;41.106;16.688;2023-08-06T11:41:58;34.82;37.86
69464;DHT22;56665;41.106;16.688;2023-08-06T11:45:04;34.73;36.95
69464;DHT22;56665;41.106;16.688;2023-08-06T11:48:08;35.07;35.58
69464;DHT22;56665;41.106;16.688;2023-08-06T11:51:14;35.65;35.22
69464;DHT22;56665;41.106;16.688;2023-08-06T11:54:31;36.37;34.64
69464;DHT22;56665;41.106;16.688;2023-08-06T11:57:39;36.71;34.43
69464;DHT22;56665;41.106;16.688;2023-08-06T12:00:45;36.58;35.00
69464;DHT22;56665;41.106;16.688;2023-08-06T12:03:48;35.71;36.10
69464;DHT22;56665;41.106;16.688;2023-08-06T12:06:52;35.68;35.35
69464;DHT22;56665;41.106;16.688;2023-08-06T12:09:57;36.00;34.18
69464;DHT22;56665;41.106;16.688;2023-08-06T12:13:01;35.96;34.48
69464;DHT22;56665;41.106;16.688;2023-08-06T12:16:06;35.23;36.23
69464;DHT22;56665;41.106;16.688;2023-08-06T12:19:09;35.11;36.46
69464;DHT22;56665;41.106;16.688;2023-08-06T12:22:14;35.07;36.58
69464;DHT22;56665;41.106;16.688;2023-08-06T12:25:17;35.21;36.15
69464;DHT22;56665;41.106;16.688;2023-08-06T12:28:21;35.06;36.33
69464;DHT22;56665;41.106;16.688;2023-08-06T12:31:24;33.88;37.97
69464;DHT22;56665;41.106;16.688;2023-08-06T12:34:28;33.24;38.92
69464;DHT22;56665;41.106;16.688;2023-08-06T12:37:32;33.13;39.13
69464;DHT22;56665;41.106;16.688;2023-08-06T12:40:36;32.46;40.19
69464;DHT22;56665;41.106;16.688;2023-08-06T12:43:39;31.83;41.45
69464;DHT22;56665;41.106;16.688;2023-08-06T12:46:44;31.98;41.26
69464;DHT22;56665;41.106;16.688;2023-08-06T12:49:49;31.93;41.22
69464;DHT22;56665;41.106;16.688;2023-08-06T12:52:53;31.80;41.28
69464;DHT22;56665;41.106;16.688;2023-08-06T12:55:57;31.80;41.00
69464;DHT22;56665;41.106;16.688;2023-08-06T12:59:00;31.54;41.66
69464;DHT22;56665;41.106;16.688;2023-08-06T13:02:05;32.27;40.78
69464;DHT22;56665;41.106;16.688;2023-08-06T13:05:09;32.93;39.83
69464;DHT22;56665;41.106;16.688;2023-08-06T13:08:14;32.69;39.93
69464;DHT22;56665;41.106;16.688;2023-08-06T13:11:18;32.38;41.00
69464;DHT22;56665;41.106;16.688;2023-08-06T13:14:22;32.17;41.76
69464;DHT22;56665;41.106;16.688;2023-08-06T13:17:26;32.96;40.78
69464;DHT22;56665;41.106;16.688;2023-08-06T13:20:30;33.12;39.79
69464;DHT22;56665;41.106;16.688;2023-08-06T13:23:34;33.16;39.41
69464;DHT22;56665;41.106;16.688;2023-08-06T13:26:38;33.04;39.75
69464;DHT22;56665;41.106;16.688;2023-08-06T13:29:42;32.72;40.11
69464;DHT22;56665;41.106;16.688;2023-08-06T13:32:46;32.44;40.52
69464;DHT22;56665;41.106;16.688;2023-08-06T13:35:49;31.97;41.21
69464;DHT22;56665;41.106;16.688;2023-08-06T13:38:54;32.46;40.51
69464;DHT22;56665;41.106;16.688;2023-08-06T13:41:58;32.51;40.09
69464;DHT22;56665;41.106;16.688;2023-08-06T13:45:02;33.03;39.39
69464;DHT22;56665;41.106;16.688;2023-08-06T13:48:06;33.24;38.81
69464;DHT22;56665;41.106;16.688;2023-08-06T13:51:10;32.65;39.36
69464;DHT22;56665;41.106;16.688;2023-08-06T13:54:14;32.24;39.87
69464;DHT22;56665;41.106;16.688;2023-08-06T13:57:19;31.84;41.20
69464;DHT22;56665;41.106;16.688;2023-08-06T14:00:23;31.46;42.15
69464;DHT22;56665;41.106;16.688;2023-08-06T14:03:28;31.16;42.79
69464;DHT22;56665;41.106;16.688;2023-08-06T14:06:32;31.14;42.52
69464;DHT22;56665;41.106;16.688;2023-08-06T14:09:36;30.85;43.19
69464;DHT22;56665;41.106;16.688;2023-08-06T14:12:39;30.63;43.61
69464;DHT22;56665;41.106;16.688;2023-08-06T14:15:43;30.47;43.91
69464;DHT22;56665;41.106;16.688;2023-08-06T14:18:50;30.74;43.18
69464;DHT22;56665;41.106;16.688;2023-08-06T14:21:54;31.00;42.61
69464;DHT22;56665;41.106;16.688;2023-08-06T14:24:58;31.08;42.23
69464;DHT22;56665;41.106;16.688;2023-08-06T14:28:02;31.16;41.81
69464;DHT22;56665;41.106;16.688;2023-08-06T14:31:06;31.05;42.02
69464;DHT22;56665;41.106;16.688;2023-08-06T14:34:10;31.00;42.11
69464;DHT22;56665;41.106;16.688;2023-08-06T14:37:13;31.06;42.18
69464;DHT22;56665;41.106;16.688;2023-08-06T14:40:17;31.00;42.77
69464;DHT22;56665;41.106;16.688;2023-08-06T14:43:21;30.72;43.28
69464;DHT22;56665;41.106;16.688;2023-08-06T14:46:25;30.74;43.19
69464;DHT22;56665;41.106;16.688;2023-08-06T14:49:29;30.68;42.96
69464;DHT22;56665;41.106;16.688;2023-08-06T14:52:32;30.79;42.80
69464;DHT22;56665;41.106;16.688;2023-08-06T14:55:36;31.09;42.17
69464;DHT22;56665;41.106;16.688;2023-08-06T14:58:40;31.27;41.88
69464;DHT22;56665;41.106;16.688;2023-08-06T15:01:45;31.06;42.48
69464;DHT22;56665;41.106;16.688;2023-08-06T15:04:49;30.85;42.92
69464;DHT22;56665;41.106;16.688;2023-08-06T15:07:53;30.64;43.22
69464;DHT22;56665;41.106;16.688;2023-08-06T15:10:57;30.67;43.23
69464;DHT22;56665;41.106;16.688;2023-08-06T15:14:01;30.68;43.28
69464;DHT22;56665;41.106;16.688;2023-08-06T15:17:09;30.60;43.41
69464;DHT22;56665;41.106;16.688;2023-08-06T15:20:13;30.56;43.65
69464;DHT22;56665;41.106;16.688;2023-08-06T15:23:16;30.58;43.41
69464;DHT22;56665;41.106;16.688;2023-08-06T15:26:20;30.46;43.87
69464;DHT22;56665;41.106;16.688;2023-08-06T15:29:24;30.51;44.01
69464;DHT22;56665;41.106;16.688;2023-08-06T15:32:28;30.54;44.26
69464;DHT22;56665;41.106;16.688;2023-08-06T15:35:31;30.54;44.34
69464;DHT22;56665;41.106;16.688;2023-08-06T15:38:35;30.72;43.98
69464;DHT22;56665;41.106;16.688;2023-08-06T15:41:39;30.84;43.75
69464;DHT22;56665;41.106;16.688;2023-08-06T15:44:43;30.91;43.24
69464;DHT22;56665;41.106;16.688;2023-08-06T15:47:47;30.99;42.99
69464;DHT22;56665;41.106;16.688;2023-08-06T15:50:50;31.06;43.08
69464;DHT22;56665;41.106;16.688;2023-08-06T15:53:54;30.96;43.30
69464;DHT22;56665;41.106;16.688;2023-08-06T15:56:58;30.63;43.86
69464;DHT22;56665;41.106;16.688;2023-08-06T16:00:03;30.30;44.86
69464;DHT22;56665;41.106;16.688;2023-08-06T16:03:16;30.21;45.23
69464;DHT22;56665;41.106;16.688;2023-08-06T16:06:20;30.19;45.41
69464;DHT22;56665;41.106;16.688;2023-08-06T16:09:25;30.28;45.40
69464;DHT22;56665;41.106;16.688;2023-08-06T16:12:29;30.17;45.65
69464;DHT22;56665;41.106;16.688;2023-08-06T16:15:32;30.17;45.92
69464;DHT22;56665;41.106;16.688;2023-08-06T16:18:36;29.98;46.45
69464;DHT22;56665;41.106;16.688;2023-08-06T16:21:40;29.81;46.85
69464;DHT22;56665;41.106;16.688;2023-08-06T16:24:44;29.81;46.39
69464;DHT22;56665;41.106;16.688;2023-08-06T16:27:47;29.81;46.32
69464;DHT22;56665;41.106;16.688;2023-08-06T16:30:51;29.81;46.40
69464;DHT22;56665;41.106;16.688;2023-08-06T16:33:56;29.79;46.48
69464;DHT22;56665;41.106;16.688;2023-08-06T16:37:00;29.69;46.68
69464;DHT22;56665;41.106;16.688;2023-08-06T16:40:04;29.55;46.95
69464;DHT22;56665;41.106;16.688;2023-08-06T16:43:08;29.48;46.98
69464;DHT22;56665;41.106;16.688;2023-08-06T16:46:13;29.42;47.03
69464;DHT22;56665;41.106;16.688;2023-08-06T16:49:17;29.42;46.97
69464;DHT22;56665;41.106;16.688;2023-08-06T16:52:21;29.39;46.90
69464;DHT22;56665;41.106;16.688;2023-08-06T16:55:25;29.37;46.74
69464;DHT22;56665;41.106;16.688;2023-08-06T16:58:29;29.41;46.81
69464;DHT22;56665;41.106;16.688;2023-08-06T17:01:33;29.44;46.88
69464;DHT22;56665;41.106;16.688;2023-08-06T17:04:38;29.38;46.20
69464;DHT22;56665;41.106;16.688;2023-08-06T17:07:42;29.35;46.11
69464;DHT22;56665;41.106;16.688;2023-08-06T17:10:47;29.31;46.09
69464;DHT22;56665;41.106;16.688;2023-08-06T17:13:51;29.35;46.24
69464;DHT22;56665;41.106;16.688;2023-08-06T17:16:55;29.37;46.77
69464;DHT22;56665;41.106;16.688;2023-08-06T17:19:59;29.35;46.62
69464;DHT22;56665;41.106;16.688;2023-08-06T17:23:02;29.33;46.64
69464;DHT22;56665;41.106;16.688;2023-08-06T17:26:07;29.35;47.08
69464;DHT22;56665;41.106;16.688;2023-08-06T17:29:11;29.30;48.35
69464;DHT22;56665;41.106;16.688;2023-08-06T17:32:15;29.23;48.98
69464;DHT22;56665;41.106;16.688;2023-08-06T17:35:19;29.12;48.95
69464;DHT22;56665;41.106;16.688;2023-08-06T17:38:23;29.06;48.76
69464;DHT22;56665;41.106;16.688;2023-08-06T17:41:26;29.01;48.32
69464;DHT22;56665;41.106;16.688;2023-08-06T17:44:31;29.00;48.39
69464;DHT22;56665;41.106;16.688;2023-08-06T17:47:35;29.01;47.97
69464;DHT22;56665;41.106;16.688;2023-08-06T17:50:40;28.97;47.77
69464;DHT22;56665;41.106;16.688;2023-08-06T17:53:43;28.90;47.59
69464;DHT22;56665;41.106;16.688;2023-08-06T17:56:47;28.84;47.62
69464;DHT22;56665;41.106;16.688;2023-08-06T17:59:51;28.80;48.64
69464;DHT22;56665;41.106;16.688;2023-08-06T18:02:54;28.70;48.30
69464;DHT22;56665;41.106;16.688;2023-08-06T18:05:59;28.59;47.84
69464;DHT22;56665;41.106;16.688;2023-08-06T18:09:03;28.56;47.90
69464;DHT22;56665;41.106;16.688;2023-08-06T18:12:07;28.60;47.07
69464;DHT22;56665;41.106;16.688;2023-08-06T18:15:13;28.53;46.89
69464;DHT22;56665;41.106;16.688;2023-08-06T18:18:17;28.49;46.87
69464;DHT22;56665;41.106;16.688;2023-08-06T18:21:21;28.45;47.11
69464;DHT22;56665;41.106;16.688;2023-08-06T18:24:25;28.39;47.38
69464;DHT22;56665;41.106;16.688;2023-08-06T18:27:29;28.33;48.27
69464;DHT22;56665;41.106;16.688;2023-08-06T18:30:32;28.25;48.08
69464;DHT22;56665;41.106;16.688;2023-08-06T18:33:38;28.14;47.83
69464;DHT22;56665;41.106;16.688;2023-08-06T18:36:42;28.05;47.91
69464;DHT22;56665;41.106;16.688;2023-08-06T18:39:50;27.94;48.10
69464;DHT22;56665;41.106;16.688;2023-08-06T18:42:53;27.87;48.25
69464;DHT22;56665;41.106;16.688;2023-08-06T18:45:57;27.80;48.51
69464;DHT22;56665;41.106;16.688;2023-08-06T18:49:01;27.76;48.50
69464;DHT22;56665;41.106;16.688;2023-08-06T18:52:05;27.67;48.56
69464;DHT22;56665;41.106;16.688;2023-08-06T18:55:09;27.61;48.81
69464;DHT22;56665;41.106;16.688;2023-08-06T18:58:13;27.57;48.80
69464;DHT22;56665;41.106;16.688;2023-08-06T19:01:17;27.49;48.89
69464;DHT22;56665;41.106;16.688;2023-08-06T19:04:21;27.43;49.11
69464;DHT22;56665;41.106;16.688;2023-08-06T19:07:24;27.40;49.16
69464;DHT22;56665;41.106;16.688;2023-08-06T19:10:28;27.33;49.26